createdAt,value
2022-11-16T00:01:52.691Z,8.13
2022-11-16T00:04:24.761Z,7.72
2022-11-16T00:06:56.867Z,9.43
2022-11-16T00:09:33.022Z,8.32
2022-11-16T00:12:08.866Z,7.63
2022-11-16T00:14:40.934Z,12.75
2022-11-16T00:17:12.872Z,12.38
2022-11-16T00:19:44.850Z,9.32
2022-11-16T00:22:16.799Z,7.50
2022-11-16T00:24:48.823Z,8.77
2022-11-16T00:27:20.810Z,9.55
2022-11-16T00:29:52.734Z,8.43
2022-11-16T00:32:24.684Z,8.02
2022-11-16T00:34:56.643Z,11.85
2022-11-16T00:37:28.600Z,8.75
2022-11-16T00:40:00.567Z,12.95
2022-11-16T00:42:32.531Z,7.07
2022-11-16T00:45:04.893Z,7.45
2022-11-16T00:47:37.161Z,11.32
2022-11-16T00:50:09.469Z,8.10
2022-11-16T00:52:41.442Z,10.32
2022-11-16T00:55:13.373Z,9.07
2022-11-16T00:57:45.353Z,9.50
2022-11-16T01:00:18.818Z,9.63
2022-11-16T01:02:52.606Z,9.93
2022-11-16T01:05:24.968Z,7.57
2022-11-16T01:07:57.353Z,9.02
2022-11-16T01:10:29.965Z,13.15
2022-11-16T01:13:01.906Z,12.27
2022-11-16T01:15:34.178Z,9.32
2022-11-16T01:18:06.217Z,9.43
2022-11-16T01:20:40.992Z,13.73
2022-11-16T01:23:13.032Z,8.45
2022-11-16T01:25:44.972Z,8.95
2022-11-16T01:28:16.888Z,11.93
2022-11-16T01:30:49.483Z,8.57
2022-11-16T01:33:21.903Z,8.07
2022-11-16T01:35:53.906Z,15.30
2022-11-16T01:38:29.614Z,8.57
2022-11-16T01:41:02.022Z,11.02
2022-11-16T01:43:53.758Z,9.20
2022-11-16T01:46:28.416Z,12.48
2022-11-16T01:49:08.209Z,9.90
2022-11-16T01:51:44.745Z,10.85
2022-11-16T01:54:17.014Z,8.15
2022-11-16T01:56:51.891Z,8.93
2022-11-16T01:59:24.003Z,11.00
2022-11-16T02:01:56.975Z,8.20
2022-11-16T02:04:29.248Z,8.77
2022-11-16T02:07:12.321Z,13.02
2022-11-16T02:10:25.437Z,11.05
2022-11-16T02:14:08.214Z,10.05
2022-11-16T02:17:16.801Z,10.25
2022-11-16T02:20:48.901Z,8.75
2022-11-16T02:23:33.555Z,7.68
2022-11-16T02:26:45.413Z,7.53
2022-11-16T02:29:41.794Z,9.65
2022-11-16T02:32:45.253Z,9.20
2022-11-16T02:35:25.591Z,8.90
2022-11-16T02:40:35.640Z,8.90
2022-11-16T02:43:12.301Z,11.00
2022-11-16T02:45:49.187Z,8.15
2022-11-16T02:48:31.539Z,6.68
2022-11-16T02:51:06.679Z,11.48
2022-11-16T02:54:04.177Z,9.85
2022-11-16T02:56:57.531Z,8.35
2022-11-16T02:59:47.740Z,9.30
2022-11-16T03:02:34.600Z,8.90
2022-11-16T03:05:15.815Z,14.75
2022-11-16T03:08:08.464Z,11.90
2022-11-16T03:11:00.802Z,13.55
2022-11-16T03:13:34.659Z,10.65
2022-11-16T03:16:24.468Z,13.88
2022-11-16T03:19:00.122Z,9.57
2022-11-16T03:21:48.051Z,12.63
2022-11-16T03:24:21.162Z,16.77
2022-11-16T03:27:04.716Z,13.85
2022-11-16T03:30:05.988Z,13.82
2022-11-16T03:32:54.373Z,11.82
2022-11-16T03:35:59.559Z,14.20
2022-11-16T03:38:34.761Z,11.85
2022-11-16T03:41:09.870Z,18.23
2022-11-16T03:43:44.359Z,14.07
2022-11-16T03:46:17.673Z,19.63
2022-11-16T03:48:56.759Z,13.98
2022-11-16T03:51:28.972Z,18.13
2022-11-16T03:54:01.080Z,15.90
2022-11-16T03:56:33.053Z,15.43
2022-11-16T03:59:04.987Z,15.98
2022-11-16T04:01:41.797Z,15.25
2022-11-16T04:04:39.286Z,20.10
2022-11-16T04:07:29.670Z,15.13
2022-11-16T04:13:11.191Z,20.00
2022-11-16T04:16:01.796Z,19.88
2022-11-16T04:18:52.296Z,19.27
2022-11-16T04:21:48.683Z,17.80
2022-11-16T04:24:30.348Z,21.50
2022-11-16T04:27:24.657Z,21.23
2022-11-16T04:29:58.486Z,24.23
2022-11-16T04:32:49.163Z,23.65
2022-11-16T04:35:46.840Z,23.42
2022-11-16T04:38:18.936Z,26.13
2022-11-16T04:40:50.910Z,26.20
2022-11-16T04:43:22.989Z,25.35
2022-11-16T04:46:13.337Z,23.17
2022-11-16T04:51:17.178Z,25.92
2022-11-16T04:53:49.147Z,23.00
2022-11-16T04:56:21.149Z,26.83
2022-11-16T04:58:53.171Z,26.40
2022-11-16T05:01:45.127Z,32.50
2022-11-16T05:04:17.175Z,25.45
2022-11-16T05:06:49.343Z,24.70
2022-11-16T05:09:21.567Z,29.15
2022-11-16T05:11:53.655Z,28.23
2022-11-16T05:14:25.762Z,25.48
2022-11-16T05:16:57.713Z,20.83
2022-11-16T05:19:48.173Z,25.25
2022-11-16T05:24:52.597Z,29.75
2022-11-16T05:27:26.994Z,29.77
2022-11-16T05:29:59.541Z,26.67
2022-11-16T05:32:31.460Z,25.08
2022-11-16T05:35:03.562Z,32.13
2022-11-16T05:37:35.615Z,29.83
2022-11-16T05:40:08.315Z,33.03
2022-11-16T05:42:40.361Z,27.48
2022-11-16T05:45:15.955Z,38.08
2022-11-16T05:47:50.424Z,28.85
2022-11-16T05:50:22.472Z,34.33
2022-11-16T05:52:54.491Z,31.85
2022-11-16T05:55:26.525Z,33.42
2022-11-16T05:57:58.461Z,33.83
2022-11-16T06:00:30.442Z,35.78
2022-11-16T06:03:02.447Z,33.83
2022-11-16T06:05:40.436Z,49.40
2022-11-16T06:08:12.867Z,42.13
2022-11-16T06:10:44.887Z,42.65
2022-11-16T06:13:16.929Z,36.15
2022-11-16T06:15:54.302Z,35.78
2022-11-16T06:18:27.211Z,40.40
2022-11-16T06:20:59.144Z,38.85
2022-11-16T06:23:31.108Z,42.92
2022-11-16T06:26:04.805Z,37.92
2022-11-16T06:28:37.392Z,36.78
2022-11-16T06:31:10.012Z,35.75
2022-11-16T06:33:42.242Z,44.60
2022-11-16T06:36:14.222Z,36.20
2022-11-16T06:38:46.203Z,40.63
2022-11-16T06:41:18.277Z,41.17
2022-11-16T06:43:50.230Z,45.42
2022-11-16T06:46:24.622Z,39.92
2022-11-16T06:48:57.017Z,42.97
2022-11-16T06:51:29.062Z,43.05
2022-11-16T06:54:01.163Z,42.83
2022-11-16T06:56:35.222Z,36.75
2022-11-16T06:59:07.182Z,48.38
2022-11-16T07:01:39.240Z,40.47
2022-11-16T07:04:12.144Z,47.15
2022-11-16T07:06:44.161Z,38.20
2022-11-16T07:09:16.265Z,40.83
2022-11-16T07:11:48.199Z,41.25
2022-11-16T07:14:20.176Z,40.25
2022-11-16T07:16:57.916Z,40.97
2022-11-16T07:19:31.371Z,45.65
2022-11-16T07:22:04.377Z,36.25
2022-11-16T07:24:36.345Z,39.55
2022-11-16T07:27:08.983Z,41.22
2022-11-16T07:29:40.907Z,45.88
2022-11-16T07:32:12.864Z,49.03
2022-11-16T07:34:44.871Z,43.10
2022-11-16T07:37:16.851Z,39.13
2022-11-16T07:39:52.025Z,43.67
2022-11-16T07:42:23.996Z,44.72
2022-11-16T07:44:55.970Z,42.95
2022-11-16T07:47:27.932Z,44.05
2022-11-16T07:49:59.877Z,44.08
2022-11-16T07:52:31.980Z,43.40
2022-11-16T07:55:05.742Z,42.20
2022-11-16T07:57:37.734Z,47.75
2022-11-16T08:00:10.300Z,46.08
2022-11-16T08:02:42.375Z,49.47
2022-11-16T08:05:14.317Z,47.80
2022-11-16T08:07:46.353Z,47.97
2022-11-16T08:10:18.586Z,51.50
2022-11-16T08:12:50.640Z,47.33
2022-11-16T08:15:23.685Z,49.58
2022-11-16T08:17:58.564Z,50.42
2022-11-16T08:20:31.410Z,46.78
2022-11-16T08:23:03.369Z,49.65
2022-11-16T08:25:35.691Z,49.88
2022-11-16T08:28:07.677Z,55.90
2022-11-16T08:30:40.178Z,52.10
2022-11-16T08:33:12.118Z,52.35
2022-11-16T08:35:44.038Z,48.55
2022-11-16T08:38:16.066Z,46.33
2022-11-16T08:40:50.880Z,41.67
2022-11-16T08:43:22.828Z,47.63
2022-11-16T08:45:55.998Z,51.35
2022-11-16T08:48:28.106Z,55.50
2022-11-16T08:51:17.540Z,53.63
2022-11-16T08:53:57.261Z,52.80
2022-11-16T08:56:30.331Z,54.83
2022-11-16T08:59:02.323Z,47.20
2022-11-16T09:01:34.389Z,53.65
2022-11-16T09:04:06.689Z,52.08
2022-11-16T09:06:39.001Z,48.95
2022-11-16T09:09:11.169Z,60.70
2022-11-16T09:11:43.229Z,58.70
2022-11-16T09:14:15.168Z,44.38
2022-11-16T09:16:47.169Z,51.25
2022-11-16T09:19:20.581Z,53.75
2022-11-16T09:21:52.606Z,49.40
2022-11-16T09:24:24.560Z,56.85
2022-11-16T09:27:00.923Z,51.60
2022-11-16T09:29:33.154Z,49.13
2022-11-16T09:32:05.410Z,56.60
2022-11-16T09:34:37.438Z,51.22
2022-11-16T09:37:09.683Z,56.45
2022-11-16T09:39:42.090Z,48.28
2022-11-16T09:42:25.555Z,56.25
2022-11-16T09:45:21.197Z,50.88
2022-11-16T09:48:02.358Z,50.28
2022-11-16T09:51:01.873Z,54.80
2022-11-16T09:53:46.605Z,50.70
2022-11-16T09:56:26.426Z,43.67
2022-11-16T09:59:17.934Z,50.22
2022-11-16T10:02:02.245Z,51.78
2022-11-16T10:05:04.805Z,48.55
2022-11-16T10:07:50.571Z,42.92
2022-11-16T10:10:39.911Z,54.85
2022-11-16T10:13:20.653Z,50.15
2022-11-16T10:16:15.649Z,48.78
2022-11-16T10:19:26.041Z,49.22
2022-11-16T10:27:49.444Z,53.63
2022-11-16T10:30:22.886Z,53.35
2022-11-16T10:33:19.383Z,53.03
2022-11-16T10:35:57.025Z,56.22
2022-11-16T10:38:31.252Z,53.08
2022-11-16T10:41:29.743Z,55.92
2022-11-16T10:44:02.618Z,52.88
2022-11-16T10:46:44.714Z,49.05
2022-11-16T10:49:36.412Z,50.17
2022-11-16T10:52:08.474Z,58.03
2022-11-16T10:54:44.287Z,52.65
2022-11-16T10:57:17.811Z,46.53
2022-11-16T10:59:59.164Z,48.40
2022-11-16T11:02:37.453Z,49.83
2022-11-16T11:05:20.868Z,45.28
2022-11-16T11:08:05.092Z,51.47
2022-11-16T11:10:41.837Z,50.92
2022-11-16T11:13:13.756Z,48.08
2022-11-16T11:15:47.639Z,50.22
2022-11-16T11:18:31.816Z,51.97
2022-11-16T11:21:21.012Z,54.05
2022-11-16T11:24:06.142Z,50.10
2022-11-16T11:26:58.442Z,48.97
2022-11-16T11:29:34.949Z,45.42
2022-11-16T11:32:24.198Z,52.67
2022-11-16T11:34:57.543Z,48.75
2022-11-16T11:37:39.775Z,50.15
2022-11-16T11:40:18.918Z,43.20
2022-11-16T11:43:01.162Z,47.13
2022-11-16T11:45:39.963Z,48.78
2022-11-16T11:48:38.005Z,47.15
2022-11-16T11:51:37.015Z,47.42
2022-11-16T11:54:28.550Z,46.05
2022-11-16T11:57:02.435Z,47.35
2022-11-16T11:59:35.372Z,41.90
2022-11-16T12:02:42.596Z,43.92
2022-11-16T12:05:26.936Z,48.45
2022-11-16T12:08:23.930Z,44.83
2022-11-16T12:11:23.908Z,41.65
2022-11-16T12:14:18.365Z,50.50
2022-11-16T12:17:38.870Z,46.25
2022-11-16T12:23:36.798Z,43.17
2022-11-16T12:26:57.195Z,47.90
2022-11-16T12:30:06.909Z,44.38
2022-11-16T12:33:12.109Z,42.47
2022-11-16T12:36:09.617Z,48.53
2022-11-16T12:39:08.247Z,42.10
2022-11-16T12:42:02.476Z,45.47
2022-11-16T12:44:57.076Z,46.80
2022-11-16T12:48:02.798Z,45.83
2022-11-16T12:51:31.740Z,52.92
2022-11-16T12:55:04.297Z,40.45
2022-11-16T12:58:09.745Z,38.55
2022-11-16T13:01:04.326Z,41.60
2022-11-16T13:03:48.028Z,38.20
2022-11-16T13:06:44.754Z,33.17
2022-11-16T13:09:22.073Z,34.47
2022-11-16T13:12:02.009Z,31.27
2022-11-16T13:14:40.740Z,31.23
2022-11-16T13:17:35.585Z,32.13
2022-11-16T13:20:24.913Z,30.25
2022-11-16T13:23:22.347Z,36.85
2022-11-16T13:26:30.987Z,34.40
2022-11-16T13:29:31.419Z,31.90
2022-11-16T13:34:41.683Z,38.13
2022-11-16T13:37:38.442Z,33.80
2022-11-16T13:40:23.714Z,33.30
2022-11-16T13:43:19.364Z,33.08
2022-11-16T13:45:57.504Z,32.85
2022-11-16T13:48:36.460Z,34.40
2022-11-16T13:51:21.074Z,27.92
2022-11-16T13:56:51.584Z,31.00
2022-11-16T13:59:30.910Z,38.40
2022-11-16T14:02:42.713Z,38.55
2022-11-16T14:05:40.449Z,37.15
2022-11-16T14:08:24.571Z,40.00
2022-11-16T14:10:56.447Z,32.45
2022-11-16T14:13:45.794Z,32.30
2022-11-16T14:16:17.874Z,35.70
2022-11-16T14:18:51.905Z,37.13
2022-11-16T14:21:47.672Z,32.47
2022-11-16T14:24:37.238Z,31.83
2022-11-16T14:27:36.217Z,34.15
2022-11-16T14:30:25.268Z,32.80
2022-11-16T14:32:58.138Z,30.08
2022-11-16T14:35:39.638Z,31.70
2022-11-16T14:38:34.585Z,34.13
2022-11-16T14:41:18.280Z,29.88
2022-11-16T14:43:54.295Z,26.60
2022-11-16T14:46:33.434Z,25.50
2022-11-16T14:49:13.240Z,26.45
2022-11-16T14:51:54.424Z,24.77
2022-11-16T14:54:42.859Z,24.85
2022-11-16T14:57:21.062Z,24.20
2022-11-16T15:00:17.985Z,25.75
2022-11-16T15:03:00.924Z,23.83
2022-11-16T15:05:36.791Z,25.48
2022-11-16T15:08:20.985Z,24.33
2022-11-16T15:10:53.159Z,26.63
2022-11-16T15:13:25.845Z,22.73
2022-11-16T15:16:19.735Z,27.63
2022-11-16T15:19:02.189Z,23.50
2022-11-16T15:21:34.271Z,31.80
2022-11-16T15:24:29.202Z,26.38
2022-11-16T15:27:11.672Z,24.95
2022-11-16T15:29:43.769Z,22.50
2022-11-16T15:32:19.079Z,25.33
2022-11-16T15:34:54.487Z,21.25
2022-11-16T15:37:30.684Z,27.42
2022-11-16T15:40:03.469Z,20.83
2022-11-16T15:42:37.331Z,21.23
2022-11-16T15:45:24.843Z,21.85
2022-11-16T15:48:00.665Z,23.05
2022-11-16T15:50:32.893Z,24.13
2022-11-16T15:53:04.915Z,19.25
2022-11-16T15:55:40.433Z,20.38
2022-11-16T15:58:27.380Z,24.52
2022-11-16T16:01:00.295Z,25.05
2022-11-16T16:03:34.908Z,24.98
2022-11-16T16:06:12.936Z,21.60
2022-11-16T16:08:45.405Z,26.35
2022-11-16T16:11:26.483Z,22.75
2022-11-16T16:14:04.568Z,22.08
2022-11-16T16:16:38.773Z,21.85
2022-11-16T16:19:44.800Z,21.05
2022-11-16T16:22:36.352Z,22.38
2022-11-16T16:25:31.906Z,23.45
2022-11-16T16:28:04.337Z,24.75
2022-11-16T16:30:36.364Z,23.20
2022-11-16T16:33:19.124Z,21.98
2022-11-16T16:35:51.219Z,22.27
2022-11-16T16:38:23.277Z,20.75
2022-11-16T16:41:04.435Z,25.55
2022-11-16T16:43:36.848Z,23.85
2022-11-16T16:46:13.218Z,23.20
2022-11-16T16:48:45.221Z,21.42
2022-11-16T16:51:17.265Z,22.63
2022-11-16T16:53:49.308Z,26.02
2022-11-16T16:56:21.500Z,24.65
2022-11-16T16:58:54.244Z,25.55
2022-11-16T17:01:26.765Z,23.33
2022-11-16T17:03:59.022Z,17.67
2022-11-16T17:06:31.352Z,20.13
2022-11-16T17:09:03.828Z,18.10
2022-11-16T17:11:35.816Z,18.83
2022-11-16T17:14:08.189Z,18.90
2022-11-16T17:16:40.421Z,18.83
2022-11-16T17:19:14.007Z,18.23
2022-11-16T17:21:46.037Z,16.25
2022-11-16T17:24:18.022Z,18.85
2022-11-16T17:26:50.677Z,16.55
2022-11-16T17:29:22.677Z,16.80
2022-11-16T17:31:54.888Z,18.60
2022-11-16T17:34:26.907Z,15.75
2022-11-16T17:36:58.875Z,18.15
2022-11-16T17:39:30.853Z,15.75
2022-11-16T17:42:03.199Z,16.55
2022-11-16T17:44:35.156Z,18.63
2022-11-16T17:47:07.543Z,13.98
2022-11-16T17:49:39.540Z,16.80
2022-11-16T17:52:11.471Z,17.30
2022-11-16T17:54:43.470Z,16.10
2022-11-16T17:57:15.462Z,14.63
2022-11-16T17:59:47.892Z,15.93
2022-11-16T18:02:19.830Z,14.55
2022-11-16T18:04:52.006Z,14.25
2022-11-16T18:07:24.117Z,14.77
2022-11-16T18:09:56.130Z,13.48
2022-11-16T18:12:28.134Z,14.18
2022-11-16T18:15:26.848Z,14.35
2022-11-16T18:17:56.893Z,17.73
2022-11-16T18:20:29.713Z,16.17
2022-11-16T18:23:01.657Z,18.65
2022-11-16T18:25:37.024Z,15.55
2022-11-16T18:28:08.995Z,17.60
2022-11-16T18:30:41.223Z,14.88
2022-11-16T18:33:13.214Z,15.45
2022-11-16T18:35:45.295Z,15.63
2022-11-16T18:38:17.407Z,15.10
2022-11-16T18:41:11.904Z,15.82
2022-11-16T18:43:51.184Z,17.33
2022-11-16T18:46:27.000Z,12.00
2022-11-16T18:48:59.445Z,11.90
2022-11-16T18:51:32.019Z,12.45
2022-11-16T18:54:04.294Z,13.75
2022-11-16T18:56:36.740Z,13.52
2022-11-16T18:59:08.707Z,16.67
2022-11-16T19:01:40.767Z,13.55
2022-11-16T19:04:12.771Z,12.77
2022-11-16T19:06:44.815Z,15.40
2022-11-16T19:09:16.759Z,14.32
2022-11-16T19:11:50.776Z,16.48
2022-11-16T19:14:22.885Z,12.38
2022-11-16T19:16:57.243Z,16.52
2022-11-16T19:19:30.069Z,12.00
2022-11-16T19:22:02.085Z,11.60
2022-11-16T19:24:34.031Z,12.90
2022-11-16T19:27:06.056Z,16.10
2022-11-16T19:29:38.002Z,10.75
2022-11-16T19:32:10.071Z,13.57
2022-11-16T19:34:42.102Z,9.02
2022-11-16T19:37:15.175Z,10.73
2022-11-16T19:39:47.186Z,12.15
2022-11-16T19:42:19.238Z,11.35
2022-11-16T19:44:51.204Z,9.70
2022-11-16T19:47:26.198Z,10.00
2022-11-16T19:49:58.141Z,11.77
2022-11-16T19:52:30.233Z,8.85
2022-11-16T19:55:02.215Z,8.93
2022-11-16T19:57:34.204Z,8.32
2022-11-16T20:00:07.034Z,9.85
2022-11-16T20:02:39.173Z,9.73
2022-11-16T20:05:11.139Z,8.60
2022-11-16T20:07:44.698Z,10.23
2022-11-16T20:10:17.281Z,9.30
2022-11-16T20:12:49.819Z,10.30
2022-11-16T20:15:24.001Z,8.60
2022-11-16T20:17:57.230Z,9.20
2022-11-16T20:20:29.307Z,7.25
2022-11-16T20:23:01.275Z,10.48
2022-11-16T20:25:33.288Z,8.30
2022-11-16T20:28:05.562Z,7.95
2022-11-16T20:30:37.545Z,8.88
2022-11-16T20:33:09.921Z,9.13
2022-11-16T20:35:42.271Z,10.57
2022-11-16T20:38:14.297Z,8.25
2022-11-16T20:40:46.230Z,6.07
2022-11-16T20:43:18.216Z,9.68
2022-11-16T20:45:54.127Z,8.23
2022-11-16T20:48:26.083Z,7.40
2022-11-16T20:51:01.633Z,8.10
2022-11-16T20:53:34.760Z,10.07
2022-11-16T20:56:07.947Z,10.00
2022-11-16T20:58:41.132Z,7.47
2022-11-16T21:01:19.496Z,9.45
2022-11-16T21:03:51.530Z,10.88
2022-11-16T21:06:25.332Z,8.35
2022-11-16T21:08:58.027Z,9.25
2022-11-16T21:11:52.525Z,9.05
2022-11-16T21:14:24.962Z,8.50
2022-11-16T21:16:56.969Z,9.15
2022-11-16T21:19:29.243Z,12.38
2022-11-16T21:22:01.688Z,9.57
2022-11-16T21:24:34.877Z,8.10
2022-11-16T21:27:09.809Z,9.00
2022-11-16T21:29:42.432Z,9.45
2022-11-16T21:32:14.749Z,9.95
2022-11-16T21:34:47.094Z,11.90
2022-11-16T21:37:19.289Z,11.68
2022-11-16T21:39:51.434Z,8.35
2022-11-16T21:42:24.251Z,9.60
2022-11-16T21:44:56.262Z,8.85
2022-11-16T21:47:31.036Z,7.50
2022-11-16T21:52:55.436Z,8.10
2022-11-16T21:55:27.897Z,8.82
2022-11-16T21:58:00.583Z,10.63
2022-11-16T22:00:32.605Z,7.50
2022-11-16T22:03:04.748Z,9.77
2022-11-16T22:06:11.726Z,11.50
2022-11-16T22:08:44.940Z,10.25
2022-11-16T22:11:18.067Z,8.57
2022-11-16T22:13:50.523Z,9.48
2022-11-16T22:16:23.592Z,11.32
2022-11-16T22:18:55.771Z,8.25
2022-11-16T22:21:28.568Z,9.95
2022-11-16T22:24:01.906Z,8.27
2022-11-16T22:26:38.201Z,8.57
2022-11-16T22:29:13.481Z,9.63
2022-11-16T22:31:47.395Z,10.38
2022-11-16T22:34:19.360Z,7.82
2022-11-16T22:36:51.591Z,8.40
2022-11-16T22:39:23.748Z,11.57
2022-11-16T22:41:55.746Z,10.18
2022-11-16T22:44:27.836Z,8.02
2022-11-16T22:46:59.984Z,6.65
2022-11-16T22:49:31.985Z,7.85
2022-11-16T22:52:04.190Z,13.73
2022-11-16T22:54:38.888Z,6.82
2022-11-16T22:57:10.995Z,7.82
2022-11-16T22:59:42.908Z,7.20
2022-11-16T23:02:14.909Z,6.82
2022-11-16T23:04:46.837Z,9.30
2022-11-16T23:07:18.849Z,9.55
2022-11-16T23:09:50.801Z,9.13
2022-11-16T23:12:41.662Z,8.88
2022-11-16T23:15:32.661Z,10.82
2022-11-16T23:18:04.988Z,13.25
2022-11-16T23:20:55.678Z,8.63
2022-11-16T23:23:45.972Z,6.93
2022-11-16T23:26:42.271Z,7.82
2022-11-16T23:29:14.240Z,7.28
2022-11-16T23:31:46.196Z,8.55
2022-11-16T23:34:20.064Z,9.20
2022-11-16T23:36:51.991Z,12.90
2022-11-16T23:39:23.972Z,8.25
2022-11-16T23:42:14.273Z,7.45
2022-11-16T23:44:46.559Z,10.95
2022-11-16T23:47:18.506Z,8.50
2022-11-16T23:49:50.517Z,8.18
2022-11-16T23:52:22.463Z,8.48
2022-11-16T23:54:54.453Z,8.65
2022-11-16T23:57:26.403Z,11.02
2022-11-16T23:59:58.471Z,8.20
